createdAt,value
2018-11-01T00:00:20.362Z,5.87
2018-11-01T00:02:49.084Z,5.20
2018-11-01T00:05:18.228Z,5.33
2018-11-01T00:07:46.935Z,5.83
2018-11-01T00:10:15.623Z,5.85
2018-11-01T00:12:44.857Z,5.45
2018-11-01T00:15:14.467Z,5.55
2018-11-01T00:17:43.133Z,6.53
2018-11-01T00:20:12.967Z,6.50
2018-11-01T00:22:42.127Z,5.75
2018-11-01T00:25:12.124Z,5.35
2018-11-01T00:27:41.553Z,5.42
2018-11-01T00:30:10.582Z,6.20
2018-11-01T00:32:39.535Z,5.55
2018-11-01T00:35:08.975Z,6.58
2018-11-01T00:37:37.700Z,5.87
2018-11-01T00:40:09.810Z,5.37
2018-11-01T00:42:38.487Z,5.85
2018-11-01T00:45:08.100Z,5.97
2018-11-01T00:47:36.816Z,5.03
2018-11-01T00:50:07.860Z,5.45
2018-11-01T00:52:36.952Z,5.75
2018-11-01T00:55:05.946Z,5.35
2018-11-01T00:57:35.013Z,5.25
2018-11-01T01:00:03.883Z,5.33
2018-11-01T01:02:32.934Z,4.70
2018-11-01T01:05:01.799Z,4.87
2018-11-01T01:07:30.697Z,5.50
2018-11-01T01:09:59.579Z,4.75
2018-11-01T01:12:29.314Z,4.90
2018-11-01T01:15:05.338Z,5.25
2018-11-01T01:17:33.989Z,5.53
2018-11-01T01:20:03.159Z,4.70
2018-11-01T01:22:31.819Z,5.35
2018-11-01T01:25:00.634Z,4.90
2018-11-01T01:27:29.391Z,4.67
2018-11-01T01:29:58.476Z,4.10
2018-11-01T01:32:27.406Z,4.50
2018-11-01T01:35:01.826Z,5.25
2018-11-01T01:37:30.715Z,5.30
2018-11-01T01:39:59.401Z,4.80
2018-11-01T01:42:33.542Z,5.35
2018-11-01T01:45:02.403Z,4.90
2018-11-01T01:47:31.619Z,4.97
2018-11-01T01:50:00.656Z,5.17
2018-11-01T01:52:29.584Z,5.00
2018-11-01T01:54:58.579Z,5.03
2018-11-01T01:57:27.420Z,4.22
2018-11-01T01:59:56.666Z,5.37
2018-11-01T02:02:25.857Z,5.62
2018-11-01T02:04:54.544Z,5.60
2018-11-01T02:07:23.154Z,5.15
2018-11-01T02:09:51.913Z,4.35
2018-11-01T02:12:20.601Z,5.00
2018-11-01T02:14:49.490Z,5.42
2018-11-01T02:17:18.173Z,4.78
2018-11-01T02:19:47.061Z,4.33
2018-11-01T02:22:23.531Z,4.78
2018-11-01T02:24:52.296Z,5.30
2018-11-01T02:27:21.152Z,5.37
2018-11-01T02:29:50.452Z,4.92
2018-11-01T02:32:19.288Z,4.25
2018-11-01T02:34:48.185Z,4.92
2018-11-01T02:37:16.902Z,4.75
2018-11-01T02:39:45.641Z,4.67
2018-11-01T02:42:20.242Z,4.75
2018-11-01T02:44:49.094Z,4.55
2018-11-01T02:47:17.916Z,4.30
2018-11-01T02:49:46.668Z,5.15
2018-11-01T02:52:15.394Z,5.03
2018-11-01T02:54:44.146Z,4.53
2018-11-01T02:57:13.033Z,4.67
2018-11-01T02:59:41.820Z,5.10
2018-11-01T03:02:10.555Z,5.33
2018-11-01T03:04:39.262Z,5.25
2018-11-01T03:07:08.071Z,3.87
2018-11-01T03:09:37.699Z,4.17
2018-11-01T03:12:07.202Z,4.00
2018-11-01T03:14:36.157Z,4.12
2018-11-01T03:17:05.581Z,4.20
2018-11-01T03:19:34.941Z,4.70
2018-11-01T03:22:03.627Z,4.22
2018-11-01T03:24:32.522Z,4.20
2018-11-01T03:27:01.719Z,4.05
2018-11-01T03:29:30.672Z,4.35
2018-11-01T03:31:59.426Z,4.62
2018-11-01T03:34:28.701Z,4.37
2018-11-01T03:36:57.664Z,3.90
2018-11-01T03:39:26.487Z,4.10
2018-11-01T03:41:55.886Z,4.20
2018-11-01T03:44:24.775Z,5.20
2018-11-01T03:47:00.117Z,4.67
2018-11-01T03:49:28.726Z,4.90
2018-11-01T03:51:57.633Z,3.70
2018-11-01T03:54:27.196Z,4.15
2018-11-01T03:56:55.842Z,3.90
2018-11-01T03:59:24.736Z,4.17
2018-11-01T04:01:53.384Z,3.20
2018-11-01T04:04:22.074Z,3.70
2018-11-01T04:06:50.721Z,4.00
2018-11-01T04:09:19.450Z,5.70
2018-11-01T04:11:48.323Z,4.45
2018-11-01T04:14:17.080Z,4.95
2018-11-01T04:16:45.789Z,4.50
2018-11-01T04:19:14.565Z,4.90
2018-11-01T04:21:43.240Z,5.85
2018-11-01T04:24:12.437Z,4.95
2018-11-01T04:26:40.959Z,4.55
2018-11-01T04:29:09.504Z,3.70
2018-11-01T04:31:37.973Z,4.05
2018-11-01T04:34:11.888Z,4.40
2018-11-01T04:36:40.355Z,5.08
2018-11-01T04:39:10.112Z,4.37
2018-11-01T04:41:38.706Z,4.35
2018-11-01T04:44:13.889Z,4.70
2018-11-01T04:46:42.533Z,5.33
2018-11-01T04:49:11.165Z,4.58
2018-11-01T04:51:39.648Z,4.22
2018-11-01T04:54:08.462Z,4.25
2018-11-01T04:56:37.130Z,5.03
2018-11-01T04:59:06.011Z,4.40
2018-11-01T05:01:34.591Z,4.42
2018-11-01T05:04:03.199Z,4.70
2018-11-01T05:06:31.659Z,4.33
2018-11-01T05:09:00.138Z,5.00
2018-11-01T05:11:28.763Z,4.20
2018-11-01T05:13:57.250Z,3.95
2018-11-01T05:16:25.854Z,4.60
2018-11-01T05:18:54.404Z,4.25
2018-11-01T05:21:28.502Z,4.47
2018-11-01T05:23:57.240Z,5.15
2018-11-01T05:26:26.252Z,4.30
2018-11-01T05:28:55.127Z,4.37
2018-11-01T05:31:23.687Z,3.90
2018-11-01T05:33:52.199Z,4.62
2018-11-01T05:36:20.979Z,3.58
2018-11-01T05:38:49.669Z,4.60
2018-11-01T05:41:18.388Z,4.12
2018-11-01T05:43:47.244Z,4.40
2018-11-01T05:46:16.135Z,4.22
2018-11-01T05:48:45.006Z,4.35
2018-11-01T05:51:13.781Z,4.15
2018-11-01T05:53:42.401Z,4.10
2018-11-01T05:56:11.000Z,4.22
2018-11-01T05:58:39.926Z,4.00
2018-11-01T06:01:12.372Z,5.92
2018-11-01T06:03:41.511Z,4.15
2018-11-01T06:06:10.044Z,3.95
2018-11-01T06:08:40.702Z,4.67
2018-11-01T06:11:09.476Z,5.25
2018-11-01T06:13:38.234Z,4.30
2018-11-01T06:16:07.018Z,4.00
2018-11-01T06:18:35.900Z,4.12
2018-11-01T06:21:05.104Z,3.95
2018-11-01T06:23:33.384Z,3.70
2018-11-01T06:26:01.704Z,4.33
2018-11-01T06:28:30.001Z,4.12
2018-11-01T06:30:58.255Z,5.87
2018-11-01T06:33:26.544Z,5.35
2018-11-01T06:35:57.833Z,5.22
2018-11-01T06:38:26.092Z,5.20
2018-11-01T06:41:00.114Z,5.10
2018-11-01T06:43:28.404Z,5.83
2018-11-01T06:45:56.727Z,6.15
2018-11-01T06:48:25.056Z,6.40
2018-11-01T06:50:53.336Z,6.65
2018-11-01T06:53:22.198Z,6.30
2018-11-01T06:55:50.524Z,7.22
2018-11-01T06:58:18.883Z,8.43
2018-11-01T07:00:47.249Z,7.42
2018-11-01T07:03:15.660Z,8.13
2018-11-01T07:05:44.080Z,6.83
2018-11-01T07:08:12.331Z,6.50
2018-11-01T07:10:40.566Z,5.70
2018-11-01T07:13:08.899Z,6.55
2018-11-01T07:15:44.622Z,5.65
2018-11-01T07:18:19.350Z,5.85
2018-11-01T07:20:47.738Z,6.45
2018-11-01T07:23:16.070Z,5.00
2018-11-01T07:25:44.406Z,4.92
2018-11-01T07:28:12.680Z,5.92
2018-11-01T07:30:41.029Z,5.85
2018-11-01T07:33:09.296Z,6.67
2018-11-01T07:35:37.565Z,7.03
2018-11-01T07:38:06.174Z,6.25
2018-11-01T07:40:34.501Z,6.70
2018-11-01T07:43:02.802Z,6.62
2018-11-01T07:45:31.138Z,6.35
2018-11-01T07:47:59.437Z,6.70
2018-11-01T07:50:27.776Z,6.62
2018-11-01T07:52:56.186Z,6.15
2018-11-01T07:55:24.515Z,6.47
2018-11-01T07:57:52.835Z,5.62
2018-11-01T08:00:21.164Z,7.15
2018-11-01T08:02:50.243Z,6.70
2018-11-01T08:05:26.997Z,6.40
2018-11-01T08:07:55.285Z,6.67
2018-11-01T08:10:23.612Z,7.28
2018-11-01T08:12:51.931Z,8.40
2018-11-01T08:15:21.325Z,10.20
2018-11-01T08:17:49.607Z,7.90
2018-11-01T08:20:18.515Z,8.40
2018-11-01T08:22:46.454Z,8.03
2018-11-01T08:25:15.112Z,9.20
2018-11-01T08:27:43.832Z,8.50
2018-11-01T08:30:13.988Z,9.60
2018-11-01T08:32:49.601Z,9.35
2018-11-01T08:35:25.397Z,10.05
2018-11-01T08:37:53.676Z,8.50
2018-11-01T08:40:21.896Z,9.63
2018-11-01T08:42:50.183Z,8.80
2018-11-01T08:45:18.499Z,9.05
2018-11-01T08:47:46.769Z,7.92
2018-11-01T08:50:15.920Z,7.20
2018-11-01T08:52:44.555Z,7.03
2018-11-01T08:55:13.357Z,10.23
2018-11-01T08:57:42.849Z,13.55
2018-11-01T09:00:11.945Z,11.60
2018-11-01T09:02:40.774Z,11.90
2018-11-01T09:05:09.984Z,11.65
2018-11-01T09:07:38.807Z,10.53
2018-11-01T09:10:09.406Z,10.15
2018-11-01T09:12:37.824Z,8.55
2018-11-01T09:15:07.422Z,6.33
2018-11-01T09:17:35.739Z,7.58
2018-11-01T09:20:04.673Z,6.60
2018-11-01T09:22:32.934Z,6.40
2018-11-01T09:25:01.238Z,6.85
2018-11-01T09:27:29.509Z,5.85
2018-11-01T09:29:57.989Z,5.05
2018-11-01T09:32:26.249Z,5.33
2018-11-01T09:34:54.500Z,5.47
2018-11-01T09:37:22.772Z,6.03
2018-11-01T09:39:51.080Z,5.80
2018-11-01T09:42:19.368Z,6.45
2018-11-01T09:44:51.049Z,6.65
2018-11-01T09:47:19.762Z,7.08
2018-11-01T09:49:47.619Z,6.35
2018-11-01T09:52:15.986Z,4.75
2018-11-01T09:54:44.321Z,5.58
2018-11-01T09:57:12.640Z,4.58
2018-11-01T09:59:40.920Z,4.55
2018-11-01T10:02:09.219Z,5.67
2018-11-01T10:04:37.543Z,5.55
2018-11-01T10:07:19.919Z,5.45
2018-11-01T10:09:48.242Z,5.45
2018-11-01T10:12:16.547Z,4.50
2018-11-01T10:14:44.982Z,5.12
2018-11-01T10:17:13.570Z,5.10
2018-11-01T10:19:41.532Z,5.90
2018-11-01T10:22:09.992Z,5.30
2018-11-01T10:24:38.249Z,4.87
2018-11-01T10:27:19.514Z,6.58
2018-11-01T10:29:38.665Z,6.40
2018-11-01T10:32:06.933Z,6.85
2018-11-01T10:34:35.218Z,5.33
2018-11-01T10:37:03.543Z,5.35
2018-11-01T10:39:31.864Z,4.60
2018-11-01T10:42:00.164Z,4.33
2018-11-01T10:44:28.430Z,5.20
2018-11-01T10:46:56.656Z,5.20
2018-11-01T10:49:24.965Z,6.50
2018-11-01T10:51:53.263Z,5.47
2018-11-01T10:54:21.596Z,6.17
2018-11-01T10:56:49.896Z,4.97
2018-11-01T10:59:18.408Z,5.47
2018-11-01T11:01:52.057Z,6.28
2018-11-01T11:04:20.332Z,6.85
2018-11-01T11:06:48.579Z,5.62
2018-11-01T11:09:16.841Z,6.00
2018-11-01T11:11:45.107Z,8.35
2018-11-01T11:14:13.407Z,6.95
2018-11-01T11:16:41.760Z,6.15
2018-11-01T11:19:10.059Z,7.67
2018-11-01T11:21:38.352Z,26.20
2018-11-01T11:24:06.682Z,9.70
2018-11-01T11:26:35.057Z,6.45
2018-11-01T11:29:03.506Z,5.80
2018-11-01T11:31:31.744Z,5.92
2018-11-01T11:34:00.059Z,5.87
2018-11-01T11:36:28.316Z,6.62
2018-11-01T11:38:56.658Z,5.87
2018-11-01T11:41:24.920Z,6.40
2018-11-01T11:43:53.253Z,5.70
2018-11-01T11:46:21.519Z,5.33
2018-11-01T11:48:49.783Z,6.10
2018-11-01T11:51:18.112Z,6.10
2018-11-01T11:53:46.424Z,6.57
2018-11-01T11:56:14.691Z,6.10
2018-11-01T11:58:42.994Z,5.85
2018-11-01T12:01:11.242Z,6.90
2018-11-01T12:03:39.564Z,5.67
2018-11-01T12:06:07.959Z,5.30
2018-11-01T12:08:36.112Z,6.07
2018-11-01T12:11:04.488Z,6.70
2018-11-01T12:13:32.805Z,6.87
2018-11-01T12:16:01.092Z,6.20
2018-11-01T12:18:29.425Z,6.80
2018-11-01T12:20:57.717Z,8.00
2018-11-01T12:23:25.913Z,7.90
2018-11-01T12:25:54.221Z,6.10
2018-11-01T12:28:22.576Z,5.93
2018-11-01T12:30:50.825Z,5.47
2018-11-01T12:33:19.137Z,6.87
2018-11-01T12:35:47.411Z,6.17
2018-11-01T12:38:15.640Z,6.37
2018-11-01T12:40:44.051Z,7.05
2018-11-01T12:43:12.295Z,7.20
2018-11-01T12:45:40.577Z,6.70
2018-11-01T12:48:08.888Z,7.70
2018-11-01T12:50:37.147Z,6.70
2018-11-01T12:53:05.419Z,6.40
2018-11-01T12:55:33.732Z,7.60
2018-11-01T12:58:01.998Z,7.30
2018-11-01T13:00:36.950Z,6.57
2018-11-01T13:03:05.233Z,7.73
2018-11-01T13:05:33.535Z,7.17
2018-11-01T13:08:01.812Z,8.48
2018-11-01T13:10:30.151Z,7.33
2018-11-01T13:12:58.404Z,7.90
2018-11-01T13:15:26.736Z,8.33
2018-11-01T13:17:55.055Z,7.30
2018-11-01T13:20:24.225Z,6.90
2018-11-01T13:22:58.844Z,8.20
2018-11-01T13:25:27.098Z,20.10
2018-11-01T13:27:55.481Z,9.90
2018-11-01T13:30:23.749Z,9.20
2018-11-01T13:32:52.052Z,13.10
2018-11-01T13:35:20.358Z,12.07
2018-11-01T13:37:48.628Z,17.87
2018-11-01T13:40:17.137Z,9.67
2018-11-01T13:42:45.221Z,6.80
2018-11-01T13:45:13.494Z,7.10
2018-11-01T13:47:41.850Z,7.10
2018-11-01T13:50:11.362Z,7.70
2018-11-01T13:52:39.661Z,8.83
2018-11-01T13:55:09.064Z,9.37
2018-11-01T13:57:37.389Z,10.37
2018-11-01T14:00:05.858Z,8.23
2018-11-01T14:02:40.244Z,8.83
2018-11-01T14:05:11.054Z,9.50
2018-11-01T14:07:39.866Z,10.07
2018-11-01T14:10:09.975Z,10.10
2018-11-01T14:12:38.739Z,9.83
2018-11-01T14:15:08.050Z,10.60
2018-11-01T14:17:36.016Z,10.47
2018-11-01T14:20:04.860Z,9.43
2018-11-01T14:22:33.119Z,11.10
2018-11-01T14:25:01.597Z,10.93
2018-11-01T14:27:30.052Z,10.20
2018-11-01T14:29:58.367Z,9.70
2018-11-01T14:32:26.612Z,10.73
2018-11-01T14:35:01.152Z,9.60
2018-11-01T14:37:29.489Z,9.10
2018-11-01T14:39:57.836Z,11.80
2018-11-01T14:42:26.209Z,12.20
2018-11-01T14:44:54.449Z,13.23
2018-11-01T14:47:22.778Z,11.50
2018-11-01T14:49:51.053Z,10.57
2018-11-01T14:52:19.469Z,9.77
2018-11-01T14:54:48.930Z,9.67
2018-11-01T14:57:17.732Z,11.50
2018-11-01T14:59:45.622Z,16.95
2018-11-01T15:02:12.668Z,13.60
2018-11-01T15:04:40.986Z,10.10
2018-11-01T15:07:09.280Z,8.25
2018-11-01T15:09:37.631Z,8.97
2018-11-01T15:12:05.915Z,8.00
2018-11-01T15:14:34.187Z,8.28
2018-11-01T15:17:02.483Z,8.13
2018-11-01T15:19:30.711Z,8.50
2018-11-01T15:21:59.018Z,9.50
2018-11-01T15:24:27.332Z,8.73
2018-11-01T15:26:55.591Z,8.13
2018-11-01T15:29:23.832Z,7.70
2018-11-01T15:31:52.165Z,7.28
2018-11-01T15:34:20.491Z,8.03
2018-11-01T15:36:48.761Z,7.55
2018-11-01T15:39:17.054Z,8.60
2018-11-01T15:41:45.354Z,8.65
2018-11-01T15:44:13.634Z,9.93
2018-11-01T15:46:41.956Z,9.00
2018-11-01T15:49:10.198Z,7.80
2018-11-01T15:51:38.493Z,8.88
2018-11-01T15:54:06.757Z,8.45
2018-11-01T15:56:35.091Z,8.00
2018-11-01T15:59:03.396Z,7.15
2018-11-01T16:01:31.672Z,9.45
2018-11-01T16:04:00.070Z,7.50
2018-11-01T16:06:28.642Z,7.45
2018-11-01T16:08:57.283Z,8.03
2018-11-01T16:11:33.407Z,7.47
2018-11-01T16:14:02.339Z,6.72
2018-11-01T16:16:30.931Z,7.25
2018-11-01T16:18:59.227Z,6.87
2018-11-01T16:21:27.887Z,6.60
2018-11-01T16:23:56.578Z,7.65
2018-11-01T16:26:25.361Z,7.22
2018-11-01T16:28:53.622Z,8.65
2018-11-01T16:31:22.384Z,7.83
2018-11-01T16:33:51.115Z,9.68
2018-11-01T16:36:19.675Z,9.05
2018-11-01T16:38:48.518Z,7.97
2018-11-01T16:41:17.284Z,8.03
2018-11-01T16:43:45.642Z,9.03
2018-11-01T16:46:14.058Z,10.78
2018-11-01T16:48:42.345Z,10.93
2018-11-01T16:51:10.875Z,10.50
2018-11-01T16:53:39.129Z,18.57
2018-11-01T16:56:07.557Z,32.70
2018-11-01T16:58:35.873Z,39.53
2018-11-01T17:01:04.183Z,43.30
2018-11-01T17:03:32.745Z,29.50
2018-11-01T17:06:00.992Z,21.70
2018-11-01T17:08:29.938Z,20.35
2018-11-01T17:10:58.992Z,22.70
2018-11-01T17:13:27.267Z,29.15
2018-11-01T17:15:55.606Z,19.73
2018-11-01T17:18:46.463Z,13.60
2018-11-01T17:21:14.945Z,9.93
2018-11-01T17:23:43.268Z,9.93
2018-11-01T17:26:11.672Z,8.43
2018-11-01T17:28:39.967Z,9.93
2018-11-01T17:31:08.322Z,9.73
2018-11-01T17:33:36.921Z,8.85
2018-11-01T17:36:05.720Z,8.08
2018-11-01T17:38:34.215Z,11.30
2018-11-01T17:41:02.632Z,15.63
2018-11-01T17:43:31.008Z,20.23
2018-11-01T17:45:59.440Z,25.00
2018-11-01T17:48:27.753Z,14.95
2018-11-01T17:51:09.754Z,12.65
2018-11-01T17:53:45.857Z,13.13
2018-11-01T17:56:14.250Z,18.00
2018-11-01T17:58:42.702Z,20.10
2018-11-01T18:01:11.115Z,19.30
2018-11-01T18:03:39.465Z,22.32
2018-11-01T18:06:07.936Z,18.62
2018-11-01T18:08:36.534Z,12.75
2018-11-01T18:11:05.119Z,17.48
2018-11-01T18:13:34.159Z,26.05
2018-11-01T18:16:02.776Z,25.12
2018-11-01T18:18:31.189Z,17.30
2018-11-01T18:21:16.543Z,16.65
2018-11-01T18:23:45.185Z,10.68
2018-11-01T18:26:29.883Z,8.93
2018-11-01T18:28:58.469Z,10.18
2018-11-01T18:31:27.664Z,11.70
2018-11-01T18:33:56.154Z,11.88
2018-11-01T18:36:24.693Z,12.90
2018-11-01T18:38:53.291Z,10.65
2018-11-01T18:41:28.186Z,10.50
2018-11-01T18:43:56.662Z,9.23
2018-11-01T18:46:25.160Z,9.70
2018-11-01T18:48:53.651Z,11.08
2018-11-01T18:51:22.248Z,10.93
2018-11-01T18:53:50.805Z,9.30
2018-11-01T18:56:19.247Z,8.98
2018-11-01T18:58:47.805Z,8.35
2018-11-01T19:01:16.479Z,9.80
2018-11-01T19:03:45.060Z,8.13
2018-11-01T19:06:13.545Z,8.25
2018-11-01T19:08:42.074Z,8.48
2018-11-01T19:11:10.711Z,8.33
2018-11-01T19:13:39.462Z,8.18
2018-11-01T19:16:08.321Z,7.20
2018-11-01T19:18:36.947Z,7.67
2018-11-01T19:21:05.742Z,8.00
2018-11-01T19:23:34.625Z,7.65
2018-11-01T19:26:03.313Z,7.78
2018-11-01T19:28:32.047Z,7.50
2018-11-01T19:31:00.589Z,6.33
2018-11-01T19:33:29.249Z,6.10
2018-11-01T19:35:57.948Z,7.03
2018-11-01T19:38:26.507Z,5.75
2018-11-01T19:40:54.968Z,7.78
2018-11-01T19:43:23.585Z,11.63
2018-11-01T19:45:52.298Z,7.65
2018-11-01T19:48:21.192Z,8.83
2018-11-01T19:50:49.505Z,6.50
2018-11-01T19:53:18.295Z,6.58
2018-11-01T19:55:47.116Z,6.25
2018-11-01T19:58:16.017Z,6.10
2018-11-01T20:00:44.991Z,5.28
2018-11-01T20:03:13.982Z,5.58
2018-11-01T20:05:42.798Z,4.87
2018-11-01T20:08:11.733Z,5.47
2018-11-01T20:10:40.649Z,5.12
2018-11-01T20:13:09.548Z,5.35
2018-11-01T20:15:38.251Z,5.35
2018-11-01T20:18:07.032Z,5.42
2018-11-01T20:20:35.956Z,5.92
2018-11-01T20:23:04.751Z,5.58
2018-11-01T20:25:33.528Z,5.42
2018-11-01T20:28:02.331Z,5.30
2018-11-01T20:30:31.457Z,4.87
2018-11-01T20:33:00.260Z,4.90
2018-11-01T20:35:29.450Z,5.50
2018-11-01T20:37:58.091Z,6.22
2018-11-01T20:40:26.879Z,5.15
2018-11-01T20:42:55.640Z,8.73
2018-11-01T20:45:24.762Z,6.58
2018-11-01T20:47:53.517Z,6.85
2018-11-01T20:50:22.433Z,5.62
2018-11-01T20:53:10.933Z,7.10
2018-11-01T20:55:39.719Z,6.20
2018-11-01T20:58:08.555Z,6.83
2018-11-01T21:00:37.448Z,6.35
2018-11-01T21:03:06.638Z,6.10
2018-11-01T21:05:35.548Z,5.55
2018-11-01T21:08:04.420Z,5.10
2018-11-01T21:10:33.159Z,5.75
2018-11-01T21:13:02.020Z,5.60
2018-11-01T21:15:31.191Z,5.78
2018-11-01T21:18:00.191Z,5.95
2018-11-01T21:20:29.126Z,6.47
2018-11-01T21:22:58.096Z,5.80
2018-11-01T21:25:27.395Z,5.75
2018-11-01T21:27:56.282Z,6.40
2018-11-01T21:30:24.892Z,6.17
2018-11-01T21:32:53.578Z,5.85
2018-11-01T21:35:22.231Z,5.75
2018-11-01T21:37:51.256Z,5.33
2018-11-01T21:40:20.113Z,6.00
2018-11-01T21:42:48.930Z,5.58
2018-11-01T21:45:17.837Z,6.40
2018-11-01T21:47:52.872Z,5.95
2018-11-01T21:50:21.641Z,6.37
2018-11-01T21:52:50.468Z,6.22
2018-11-01T21:55:19.140Z,5.85
2018-11-01T21:57:47.722Z,6.28
2018-11-01T22:00:16.408Z,5.50
2018-11-01T22:02:45.095Z,6.92
2018-11-01T22:05:13.923Z,5.67
2018-11-01T22:07:42.941Z,6.53
2018-11-01T22:10:12.130Z,6.20
2018-11-01T22:12:40.727Z,6.62
2018-11-01T22:15:17.852Z,6.40
2018-11-01T22:17:46.495Z,6.47
2018-11-01T22:20:15.009Z,6.83
2018-11-01T22:22:43.678Z,7.60
2018-11-01T22:25:12.651Z,6.92
2018-11-01T22:27:41.443Z,7.30
2018-11-01T22:30:11.185Z,7.90
2018-11-01T22:32:40.733Z,7.40
2018-11-01T22:35:15.191Z,7.83
2018-11-01T22:37:44.020Z,6.53
2018-11-01T22:40:12.808Z,7.22
2018-11-01T22:42:41.703Z,6.90
2018-11-01T22:45:11.346Z,7.72
2018-11-01T22:47:40.364Z,7.90
2018-11-01T22:50:10.102Z,7.05
2018-11-01T22:52:39.295Z,7.58
2018-11-01T22:55:09.294Z,8.03
2018-11-01T22:57:48.333Z,7.97
2018-11-01T23:00:17.008Z,7.45
2018-11-01T23:02:46.143Z,8.15
2018-11-01T23:05:15.048Z,7.15
2018-11-01T23:07:43.725Z,6.70
2018-11-01T23:10:13.897Z,7.50
2018-11-01T23:12:49.008Z,7.42
2018-11-01T23:15:17.536Z,6.75
2018-11-01T23:17:46.119Z,7.55
2018-11-01T23:20:14.761Z,6.55
2018-11-01T23:22:43.590Z,6.67
2018-11-01T23:25:12.262Z,7.42
2018-11-01T23:27:41.270Z,7.25
2018-11-01T23:30:10.172Z,6.75
2018-11-01T23:32:38.954Z,6.72
2018-11-01T23:35:08.011Z,7.00
2018-11-01T23:37:42.168Z,7.03
2018-11-01T23:40:16.208Z,5.47
2018-11-01T23:42:50.720Z,6.75
2018-11-01T23:45:25.743Z,6.83
2018-11-01T23:47:59.891Z,6.50
2018-11-01T23:50:36.067Z,5.45
2018-11-01T23:53:09.093Z,5.67
2018-11-01T23:55:38.115Z,5.35
2018-11-01T23:58:07.023Z,5.78
